sensor_id;sensor_type;location;lat;lon;timestamp;P1;durP1;ratioP1;P2;durP2;ratioP2
71696;SDS011;68167;59.120;37.898;2023-04-03T00:00:29;87.60;;;5.20;;
71696;SDS011;68167;59.120;37.898;2023-04-03T00:02:56;52.73;;;3.97;;
71696;SDS011;68167;59.120;37.898;2023-04-03T00:05:22;37.93;;;3.40;;
71696;SDS011;68167;59.120;37.898;2023-04-03T00:07:49;130.23;;;6.47;;
71696;SDS011;68167;59.120;37.898;2023-04-03T00:10:15;78.13;;;5.03;;
71696;SDS011;68167;59.120;37.898;2023-04-03T00:12:42;113.03;;;6.77;;
71696;SDS011;68167;59.120;37.898;2023-04-03T00:15:08;63.33;;;4.67;;
71696;SDS011;68167;59.120;37.898;2023-04-03T00:17:36;90.67;;;5.07;;
71696;SDS011;68167;59.120;37.898;2023-04-03T00:20:02;95.20;;;6.73;;
71696;SDS011;68167;59.120;37.898;2023-04-03T00:22:30;41.47;;;3.93;;
71696;SDS011;68167;59.120;37.898;2023-04-03T00:24:57;109.07;;;6.27;;
71696;SDS011;68167;59.120;37.898;2023-04-03T00:27:23;71.90;;;5.10;;
71696;SDS011;68167;59.120;37.898;2023-04-03T00:29:49;86.20;;;6.43;;
71696;SDS011;68167;59.120;37.898;2023-04-03T00:32:15;114.30;;;6.43;;
71696;SDS011;68167;59.120;37.898;2023-04-03T00:34:42;86.60;;;4.83;;
71696;SDS011;68167;59.120;37.898;2023-04-03T00:37:08;60.37;;;4.30;;
71696;SDS011;68167;59.120;37.898;2023-04-03T00:39:35;76.00;;;4.43;;
71696;SDS011;68167;59.120;37.898;2023-04-03T00:42:01;68.13;;;4.90;;
71696;SDS011;68167;59.120;37.898;2023-04-03T00:46:54;55.03;;;4.27;;
71696;SDS011;68167;59.120;37.898;2023-04-03T00:49:20;78.83;;;4.87;;
71696;SDS011;68167;59.120;37.898;2023-04-03T00:51:47;22.73;;;2.53;;
71696;SDS011;68167;59.120;37.898;2023-04-03T00:54:13;80.17;;;4.77;;
71696;SDS011;68167;59.120;37.898;2023-04-03T00:56:41;35.97;;;2.87;;
71696;SDS011;68167;59.120;37.898;2023-04-03T00:59:08;38.53;;;3.03;;
71696;SDS011;68167;59.120;37.898;2023-04-03T01:01:38;39.87;;;3.23;;
71696;SDS011;68167;59.120;37.898;2023-04-03T01:04:05;48.80;;;3.87;;
71696;SDS011;68167;59.120;37.898;2023-04-03T01:06:34;33.80;;;3.63;;
71696;SDS011;68167;59.120;37.898;2023-04-03T01:09:07;41.70;;;3.70;;
71696;SDS011;68167;59.120;37.898;2023-04-03T01:11:33;51.30;;;4.43;;
71696;SDS011;68167;59.120;37.898;2023-04-03T01:14:01;37.90;;;4.60;;
71696;SDS011;68167;59.120;37.898;2023-04-03T01:16:28;24.87;;;2.70;;
71696;SDS011;68167;59.120;37.898;2023-04-03T01:18:59;52.20;;;5.07;;
71696;SDS011;68167;59.120;37.898;2023-04-03T01:26:38;40.17;;;3.47;;
71696;SDS011;68167;59.120;37.898;2023-04-03T01:29:05;16.13;;;3.47;;
71696;SDS011;68167;59.120;37.898;2023-04-03T01:34:01;37.17;;;4.20;;
71696;SDS011;68167;59.120;37.898;2023-04-03T01:36:30;28.10;;;3.97;;
71696;SDS011;68167;59.120;37.898;2023-04-03T01:38:58;28.40;;;3.63;;
71696;SDS011;68167;59.120;37.898;2023-04-03T01:41:26;18.60;;;3.30;;
71696;SDS011;68167;59.120;37.898;2023-04-03T01:43:58;19.33;;;2.57;;
71696;SDS011;68167;59.120;37.898;2023-04-03T01:46:25;19.90;;;3.50;;
71696;SDS011;68167;59.120;37.898;2023-04-03T01:48:51;14.77;;;2.77;;
71696;SDS011;68167;59.120;37.898;2023-04-03T01:51:17;9.43;;;2.80;;
71696;SDS011;68167;59.120;37.898;2023-04-03T01:53:44;24.77;;;3.33;;
71696;SDS011;68167;59.120;37.898;2023-04-03T01:56:10;20.13;;;2.60;;
71696;SDS011;68167;59.120;37.898;2023-04-03T01:58:36;36.80;;;3.63;;
71696;SDS011;68167;59.120;37.898;2023-04-03T02:01:03;26.53;;;3.10;;
71696;SDS011;68167;59.120;37.898;2023-04-03T02:03:29;25.87;;;3.83;;
71696;SDS011;68167;59.120;37.898;2023-04-03T02:05:56;15.50;;;3.40;;
71696;SDS011;68167;59.120;37.898;2023-04-03T02:08:23;20.47;;;3.00;;
71696;SDS011;68167;59.120;37.898;2023-04-03T02:10:49;24.63;;;2.93;;
71696;SDS011;68167;59.120;37.898;2023-04-03T02:13:17;24.20;;;3.03;;
71696;SDS011;68167;59.120;37.898;2023-04-03T02:15:44;18.37;;;3.00;;
71696;SDS011;68167;59.120;37.898;2023-04-03T02:18:11;52.00;;;3.50;;
71696;SDS011;68167;59.120;37.898;2023-04-03T02:20:38;17.43;;;3.00;;
71696;SDS011;68167;59.120;37.898;2023-04-03T02:23:04;22.37;;;3.37;;
71696;SDS011;68167;59.120;37.898;2023-04-03T02:25:31;25.20;;;3.20;;
71696;SDS011;68167;59.120;37.898;2023-04-03T02:27:58;59.87;;;4.27;;
71696;SDS011;68167;59.120;37.898;2023-04-03T02:30:25;61.57;;;5.23;;
71696;SDS011;68167;59.120;37.898;2023-04-03T02:32:52;53.03;;;3.93;;
71696;SDS011;68167;59.120;37.898;2023-04-03T02:35:19;32.43;;;3.50;;
71696;SDS011;68167;59.120;37.898;2023-04-03T02:37:47;30.43;;;3.37;;
71696;SDS011;68167;59.120;37.898;2023-04-03T02:40:14;16.80;;;2.57;;
71696;SDS011;68167;59.120;37.898;2023-04-03T02:42:40;28.30;;;4.20;;
71696;SDS011;68167;59.120;37.898;2023-04-03T02:45:07;31.53;;;3.50;;
71696;SDS011;68167;59.120;37.898;2023-04-03T02:47:33;15.23;;;2.63;;
71696;SDS011;68167;59.120;37.898;2023-04-03T02:50:00;59.97;;;3.97;;
71696;SDS011;68167;59.120;37.898;2023-04-03T02:52:26;24.43;;;3.33;;
71696;SDS011;68167;59.120;37.898;2023-04-03T02:54:55;19.57;;;3.30;;
71696;SDS011;68167;59.120;37.898;2023-04-03T02:57:22;22.13;;;3.17;;
71696;SDS011;68167;59.120;37.898;2023-04-03T02:59:49;25.20;;;3.43;;
71696;SDS011;68167;59.120;37.898;2023-04-03T03:02:15;18.80;;;3.37;;
71696;SDS011;68167;59.120;37.898;2023-04-03T03:04:42;23.83;;;3.40;;
71696;SDS011;68167;59.120;37.898;2023-04-03T03:07:08;24.13;;;3.20;;
71696;SDS011;68167;59.120;37.898;2023-04-03T03:09:35;25.37;;;3.53;;
71696;SDS011;68167;59.120;37.898;2023-04-03T03:12:02;12.57;;;2.60;;
71696;SDS011;68167;59.120;37.898;2023-04-03T03:14:29;35.87;;;3.13;;
71696;SDS011;68167;59.120;37.898;2023-04-03T03:16:56;29.10;;;3.37;;
71696;SDS011;68167;59.120;37.898;2023-04-03T03:19:22;17.50;;;3.20;;
71696;SDS011;68167;59.120;37.898;2023-04-03T03:21:49;45.00;;;3.10;;
71696;SDS011;68167;59.120;37.898;2023-04-03T03:24:16;31.13;;;3.57;;
71696;SDS011;68167;59.120;37.898;2023-04-03T03:26:42;48.70;;;4.17;;
71696;SDS011;68167;59.120;37.898;2023-04-03T03:29:09;46.27;;;3.93;;
71696;SDS011;68167;59.120;37.898;2023-04-03T03:31:36;17.70;;;2.93;;
71696;SDS011;68167;59.120;37.898;2023-04-03T03:34:02;38.73;;;4.10;;
71696;SDS011;68167;59.120;37.898;2023-04-03T03:36:29;45.87;;;4.53;;
71696;SDS011;68167;59.120;37.898;2023-04-03T03:38:56;19.80;;;3.07;;
71696;SDS011;68167;59.120;37.898;2023-04-03T03:41:23;12.50;;;2.57;;
71696;SDS011;68167;59.120;37.898;2023-04-03T03:43:50;26.03;;;3.70;;
71696;SDS011;68167;59.120;37.898;2023-04-03T03:46:16;21.97;;;3.77;;
71696;SDS011;68167;59.120;37.898;2023-04-03T03:48:43;42.63;;;3.30;;
71696;SDS011;68167;59.120;37.898;2023-04-03T03:51:10;76.93;;;5.20;;
71696;SDS011;68167;59.120;37.898;2023-04-03T03:53:38;44.93;;;4.37;;
71696;SDS011;68167;59.120;37.898;2023-04-03T03:56:08;48.43;;;4.57;;
71696;SDS011;68167;59.120;37.898;2023-04-03T03:58:36;85.93;;;5.87;;
71696;SDS011;68167;59.120;37.898;2023-04-03T04:01:03;37.87;;;5.23;;
71696;SDS011;68167;59.120;37.898;2023-04-03T04:03:33;26.40;;;4.07;;
71696;SDS011;68167;59.120;37.898;2023-04-03T04:06:00;47.50;;;5.03;;
71696;SDS011;68167;59.120;37.898;2023-04-03T04:08:27;75.87;;;7.57;;
71696;SDS011;68167;59.120;37.898;2023-04-03T04:10:53;46.70;;;4.37;;
71696;SDS011;68167;59.120;37.898;2023-04-03T04:13:20;29.90;;;3.93;;
71696;SDS011;68167;59.120;37.898;2023-04-03T04:15:46;33.17;;;4.20;;
71696;SDS011;68167;59.120;37.898;2023-04-03T04:18:14;38.73;;;4.40;;
71696;SDS011;68167;59.120;37.898;2023-04-03T04:20:44;36.90;;;4.30;;
71696;SDS011;68167;59.120;37.898;2023-04-03T04:23:12;55.17;;;4.27;;
71696;SDS011;68167;59.120;37.898;2023-04-03T04:25:39;106.90;;;7.33;;
71696;SDS011;68167;59.120;37.898;2023-04-03T04:28:06;41.10;;;4.90;;
71696;SDS011;68167;59.120;37.898;2023-04-03T04:30:32;50.43;;;6.17;;
71696;SDS011;68167;59.120;37.898;2023-04-03T04:32:58;24.43;;;4.10;;
71696;SDS011;68167;59.120;37.898;2023-04-03T04:35:26;45.20;;;4.60;;
71696;SDS011;68167;59.120;37.898;2023-04-03T04:37:52;33.67;;;4.23;;
71696;SDS011;68167;59.120;37.898;2023-04-03T04:40:18;59.87;;;4.70;;
71696;SDS011;68167;59.120;37.898;2023-04-03T04:42:45;25.90;;;4.17;;
71696;SDS011;68167;59.120;37.898;2023-04-03T04:45:12;51.00;;;5.07;;
71696;SDS011;68167;59.120;37.898;2023-04-03T04:47:41;38.67;;;4.43;;
71696;SDS011;68167;59.120;37.898;2023-04-03T04:50:07;38.97;;;5.43;;
71696;SDS011;68167;59.120;37.898;2023-04-03T04:52:34;45.83;;;6.07;;
71696;SDS011;68167;59.120;37.898;2023-04-03T04:55:01;18.37;;;4.50;;
71696;SDS011;68167;59.120;37.898;2023-04-03T04:57:28;49.60;;;4.90;;
71696;SDS011;68167;59.120;37.898;2023-04-03T04:59:58;63.30;;;6.97;;
71696;SDS011;68167;59.120;37.898;2023-04-03T05:02:25;46.90;;;5.80;;
71696;SDS011;68167;59.120;37.898;2023-04-03T05:04:51;60.40;;;6.27;;
71696;SDS011;68167;59.120;37.898;2023-04-03T05:07:22;33.90;;;5.37;;
71696;SDS011;68167;59.120;37.898;2023-04-03T05:09:49;28.67;;;4.00;;
71696;SDS011;68167;59.120;37.898;2023-04-03T05:12:17;32.57;;;4.37;;
71696;SDS011;68167;59.120;37.898;2023-04-03T05:14:49;32.27;;;4.10;;
71696;SDS011;68167;59.120;37.898;2023-04-03T05:17:16;26.10;;;4.33;;
71696;SDS011;68167;59.120;37.898;2023-04-03T05:19:48;39.17;;;4.73;;
71696;SDS011;68167;59.120;37.898;2023-04-03T05:22:15;20.90;;;4.70;;
71696;SDS011;68167;59.120;37.898;2023-04-03T05:24:42;26.57;;;5.17;;
71696;SDS011;68167;59.120;37.898;2023-04-03T05:27:08;35.17;;;4.47;;
71696;SDS011;68167;59.120;37.898;2023-04-03T05:29:38;28.57;;;3.90;;
71696;SDS011;68167;59.120;37.898;2023-04-03T05:32:05;21.17;;;4.77;;
71696;SDS011;68167;59.120;37.898;2023-04-03T05:34:32;32.73;;;4.57;;
71696;SDS011;68167;59.120;37.898;2023-04-03T05:36:59;27.53;;;5.00;;
71696;SDS011;68167;59.120;37.898;2023-04-03T05:39:27;18.93;;;4.63;;
71696;SDS011;68167;59.120;37.898;2023-04-03T05:41:54;18.07;;;5.10;;
71696;SDS011;68167;59.120;37.898;2023-04-03T05:44:21;15.03;;;5.17;;
71696;SDS011;68167;59.120;37.898;2023-04-03T05:46:49;27.37;;;5.10;;
71696;SDS011;68167;59.120;37.898;2023-04-03T05:49:16;21.83;;;5.80;;
71696;SDS011;68167;59.120;37.898;2023-04-03T05:51:42;24.80;;;6.03;;
71696;SDS011;68167;59.120;37.898;2023-04-03T05:54:19;27.37;;;6.10;;
71696;SDS011;68167;59.120;37.898;2023-04-03T05:56:50;19.17;;;5.50;;
71696;SDS011;68167;59.120;37.898;2023-04-03T05:59:19;39.93;;;5.87;;
71696;SDS011;68167;59.120;37.898;2023-04-03T06:01:47;30.50;;;5.20;;
71696;SDS011;68167;59.120;37.898;2023-04-03T06:04:15;23.17;;;5.17;;
71696;SDS011;68167;59.120;37.898;2023-04-03T06:06:52;18.90;;;5.27;;
71696;SDS011;68167;59.120;37.898;2023-04-03T06:09:26;15.10;;;3.97;;
71696;SDS011;68167;59.120;37.898;2023-04-03T06:11:54;28.90;;;4.17;;
71696;SDS011;68167;59.120;37.898;2023-04-03T06:14:24;17.93;;;4.60;;
71696;SDS011;68167;59.120;37.898;2023-04-03T06:16:52;10.80;;;4.17;;
71696;SDS011;68167;59.120;37.898;2023-04-03T06:19:22;15.27;;;3.93;;
71696;SDS011;68167;59.120;37.898;2023-04-03T06:21:52;17.07;;;4.80;;
71696;SDS011;68167;59.120;37.898;2023-04-03T06:24:19;18.07;;;4.57;;
71696;SDS011;68167;59.120;37.898;2023-04-03T06:26:47;17.17;;;5.00;;
71696;SDS011;68167;59.120;37.898;2023-04-03T06:29:14;10.87;;;4.57;;
71696;SDS011;68167;59.120;37.898;2023-04-03T06:31:41;14.97;;;5.37;;
71696;SDS011;68167;59.120;37.898;2023-04-03T06:34:08;17.37;;;5.90;;
71696;SDS011;68167;59.120;37.898;2023-04-03T06:36:36;8.63;;;4.33;;
71696;SDS011;68167;59.120;37.898;2023-04-03T06:39:05;32.57;;;11.30;;
71696;SDS011;68167;59.120;37.898;2023-04-03T06:41:32;17.10;;;5.27;;
71696;SDS011;68167;59.120;37.898;2023-04-03T06:43:59;20.53;;;6.00;;
71696;SDS011;68167;59.120;37.898;2023-04-03T06:46:26;11.70;;;4.27;;
71696;SDS011;68167;59.120;37.898;2023-04-03T06:48:53;32.57;;;4.90;;
71696;SDS011;68167;59.120;37.898;2023-04-03T06:51:21;24.17;;;5.00;;
71696;SDS011;68167;59.120;37.898;2023-04-03T06:53:50;11.90;;;4.57;;
71696;SDS011;68167;59.120;37.898;2023-04-03T06:56:18;30.20;;;5.20;;
71696;SDS011;68167;59.120;37.898;2023-04-03T06:58:44;18.37;;;5.43;;
71696;SDS011;68167;59.120;37.898;2023-04-03T07:01:12;8.63;;;4.23;;
71696;SDS011;68167;59.120;37.898;2023-04-03T07:03:42;11.20;;;4.90;;
71696;SDS011;68167;59.120;37.898;2023-04-03T07:06:10;10.90;;;5.30;;
71696;SDS011;68167;59.120;37.898;2023-04-03T07:08:38;12.80;;;5.90;;
71696;SDS011;68167;59.120;37.898;2023-04-03T07:11:06;10.90;;;5.17;;
71696;SDS011;68167;59.120;37.898;2023-04-03T07:13:32;9.17;;;4.73;;
71696;SDS011;68167;59.120;37.898;2023-04-03T07:15:59;10.57;;;5.33;;
71696;SDS011;68167;59.120;37.898;2023-04-03T07:18:26;12.63;;;5.83;;
71696;SDS011;68167;59.120;37.898;2023-04-03T07:20:53;12.27;;;6.33;;
71696;SDS011;68167;59.120;37.898;2023-04-03T07:23:19;13.87;;;6.77;;
71696;SDS011;68167;59.120;37.898;2023-04-03T07:25:47;15.03;;;7.00;;
71696;SDS011;68167;59.120;37.898;2023-04-03T07:28:14;15.93;;;7.83;;
71696;SDS011;68167;59.120;37.898;2023-04-03T07:30:43;14.20;;;6.37;;
71696;SDS011;68167;59.120;37.898;2023-04-03T07:33:16;15.63;;;7.50;;
71696;SDS011;68167;59.120;37.898;2023-04-03T07:35:45;24.07;;;8.27;;
71696;SDS011;68167;59.120;37.898;2023-04-03T07:38:12;29.80;;;7.70;;
71696;SDS011;68167;59.120;37.898;2023-04-03T07:40:39;18.93;;;8.03;;
71696;SDS011;68167;59.120;37.898;2023-04-03T07:43:06;14.20;;;6.83;;
71696;SDS011;68167;59.120;37.898;2023-04-03T07:45:34;13.10;;;5.13;;
71696;SDS011;68167;59.120;37.898;2023-04-03T07:48:01;15.90;;;7.03;;
71696;SDS011;68167;59.120;37.898;2023-04-03T07:50:28;23.70;;;7.33;;
71696;SDS011;68167;59.120;37.898;2023-04-03T07:52:56;12.03;;;6.17;;
71696;SDS011;68167;59.120;37.898;2023-04-03T07:55:23;23.33;;;7.57;;
71696;SDS011;68167;59.120;37.898;2023-04-03T07:57:51;22.20;;;5.57;;
71696;SDS011;68167;59.120;37.898;2023-04-03T08:00:17;13.77;;;5.77;;
71696;SDS011;68167;59.120;37.898;2023-04-03T08:02:45;14.90;;;4.93;;
71696;SDS011;68167;59.120;37.898;2023-04-03T08:05:17;21.33;;;6.47;;
71696;SDS011;68167;59.120;37.898;2023-04-03T08:07:45;11.03;;;5.50;;
71696;SDS011;68167;59.120;37.898;2023-04-03T08:10:12;17.77;;;5.13;;
71696;SDS011;68167;59.120;37.898;2023-04-03T08:12:41;15.90;;;5.10;;
71696;SDS011;68167;59.120;37.898;2023-04-03T08:15:08;12.17;;;5.43;;
71696;SDS011;68167;59.120;37.898;2023-04-03T08:17:35;13.87;;;4.97;;
71696;SDS011;68167;59.120;37.898;2023-04-03T08:20:03;14.93;;;6.33;;
71696;SDS011;68167;59.120;37.898;2023-04-03T08:22:32;20.20;;;7.63;;
71696;SDS011;68167;59.120;37.898;2023-04-03T08:24:59;15.07;;;6.33;;
71696;SDS011;68167;59.120;37.898;2023-04-03T08:27:27;18.80;;;7.93;;
71696;SDS011;68167;59.120;37.898;2023-04-03T08:29:55;20.03;;;8.03;;
71696;SDS011;68167;59.120;37.898;2023-04-03T08:32:22;25.43;;;10.27;;
71696;SDS011;68167;59.120;37.898;2023-04-03T08:34:50;21.07;;;8.00;;
71696;SDS011;68167;59.120;37.898;2023-04-03T08:37:16;17.10;;;7.50;;
71696;SDS011;68167;59.120;37.898;2023-04-03T08:39:43;18.33;;;8.70;;
71696;SDS011;68167;59.120;37.898;2023-04-03T08:42:19;15.83;;;7.30;;
71696;SDS011;68167;59.120;37.898;2023-04-03T08:47:28;14.10;;;6.00;;
71696;SDS011;68167;59.120;37.898;2023-04-03T08:49:58;11.17;;;6.33;;
71696;SDS011;68167;59.120;37.898;2023-04-03T08:55:30;15.03;;;7.33;;
71696;SDS011;68167;59.120;37.898;2023-04-03T08:58:26;10.73;;;5.93;;
71696;SDS011;68167;59.120;37.898;2023-04-03T09:00:56;7.13;;;4.27;;
71696;SDS011;68167;59.120;37.898;2023-04-03T09:03:30;8.50;;;3.80;;
71696;SDS011;68167;59.120;37.898;2023-04-03T09:06:11;7.60;;;4.23;;
71696;SDS011;68167;59.120;37.898;2023-04-03T09:14:12;11.37;;;5.97;;
71696;SDS011;68167;59.120;37.898;2023-04-03T09:16:59;9.97;;;4.63;;
71696;SDS011;68167;59.120;37.898;2023-04-03T09:22:07;9.97;;;4.80;;
71696;SDS011;68167;59.120;37.898;2023-04-03T09:24:45;9.03;;;4.73;;
71696;SDS011;68167;59.120;37.898;2023-04-03T09:27:16;10.07;;;4.30;;
71696;SDS011;68167;59.120;37.898;2023-04-03T09:29:43;9.77;;;4.90;;
71696;SDS011;68167;59.120;37.898;2023-04-03T09:32:19;8.50;;;4.50;;
71696;SDS011;68167;59.120;37.898;2023-04-03T09:34:56;7.17;;;3.93;;
71696;SDS011;68167;59.120;37.898;2023-04-03T09:37:41;11.60;;;4.67;;
71696;SDS011;68167;59.120;37.898;2023-04-03T09:42:58;9.10;;;4.97;;
71696;SDS011;68167;59.120;37.898;2023-04-03T09:45:30;7.57;;;4.87;;
71696;SDS011;68167;59.120;37.898;2023-04-03T09:48:05;8.20;;;4.73;;
71696;SDS011;68167;59.120;37.898;2023-04-03T09:50:33;7.63;;;4.23;;
71696;SDS011;68167;59.120;37.898;2023-04-03T09:53:07;7.37;;;4.30;;
71696;SDS011;68167;59.120;37.898;2023-04-03T09:55:55;10.20;;;5.37;;
71696;SDS011;68167;59.120;37.898;2023-04-03T09:58:26;12.17;;;5.17;;
71696;SDS011;68167;59.120;37.898;2023-04-03T10:00:56;9.47;;;4.50;;
71696;SDS011;68167;59.120;37.898;2023-04-03T10:03:25;7.10;;;3.80;;
71696;SDS011;68167;59.120;37.898;2023-04-03T10:05:53;8.10;;;4.10;;
71696;SDS011;68167;59.120;37.898;2023-04-03T10:08:25;10.23;;;5.17;;
71696;SDS011;68167;59.120;37.898;2023-04-03T10:11:09;10.77;;;5.40;;
71696;SDS011;68167;59.120;37.898;2023-04-03T10:13:56;7.40;;;4.17;;
71696;SDS011;68167;59.120;37.898;2023-04-03T10:19:20;9.73;;;5.17;;
71696;SDS011;68167;59.120;37.898;2023-04-03T10:22:00;9.00;;;4.13;;
71696;SDS011;68167;59.120;37.898;2023-04-03T10:28:03;10.50;;;5.53;;
71696;SDS011;68167;59.120;37.898;2023-04-03T10:33:18;12.03;;;5.50;;
71696;SDS011;68167;59.120;37.898;2023-04-03T10:36:06;13.27;;;5.90;;
71696;SDS011;68167;59.120;37.898;2023-04-03T10:46:49;9.40;;;5.30;;
71696;SDS011;68167;59.120;37.898;2023-04-03T10:49:22;12.97;;;4.73;;
71696;SDS011;68167;59.120;37.898;2023-04-03T10:54:46;9.90;;;5.40;;
71696;SDS011;68167;59.120;37.898;2023-04-03T10:57:33;10.33;;;4.50;;
71696;SDS011;68167;59.120;37.898;2023-04-03T11:00:07;11.00;;;5.20;;
71696;SDS011;68167;59.120;37.898;2023-04-03T11:03:06;6.67;;;4.03;;
71696;SDS011;68167;59.120;37.898;2023-04-03T11:05:45;10.73;;;5.67;;
71696;SDS011;68167;59.120;37.898;2023-04-03T11:08:24;12.53;;;6.57;;
71696;SDS011;68167;59.120;37.898;2023-04-03T11:10:57;11.37;;;4.93;;
71696;SDS011;68167;59.120;37.898;2023-04-03T11:16:30;4.80;;;3.13;;
71696;SDS011;68167;59.120;37.898;2023-04-03T11:21:36;11.93;;;6.10;;
71696;SDS011;68167;59.120;37.898;2023-04-03T11:24:15;10.27;;;4.43;;
71696;SDS011;68167;59.120;37.898;2023-04-03T11:26:48;6.90;;;3.77;;
71696;SDS011;68167;59.120;37.898;2023-04-03T11:29:19;8.53;;;4.10;;
71696;SDS011;68167;59.120;37.898;2023-04-03T11:34:39;8.53;;;4.13;;
71696;SDS011;68167;59.120;37.898;2023-04-03T11:37:27;8.03;;;4.20;;
71696;SDS011;68167;59.120;37.898;2023-04-03T11:40:00;9.70;;;4.73;;
71696;SDS011;68167;59.120;37.898;2023-04-03T11:45:23;13.90;;;4.87;;
71696;SDS011;68167;59.120;37.898;2023-04-03T11:50:44;9.83;;;5.03;;
71696;SDS011;68167;59.120;37.898;2023-04-03T11:55:43;9.50;;;4.53;;
71696;SDS011;68167;59.120;37.898;2023-04-03T11:58:26;10.00;;;4.23;;
71696;SDS011;68167;59.120;37.898;2023-04-03T12:00:58;11.33;;;4.43;;
71696;SDS011;68167;59.120;37.898;2023-04-03T12:08:46;9.53;;;4.40;;
71696;SDS011;68167;59.120;37.898;2023-04-03T12:11:25;11.47;;;3.73;;
71696;SDS011;68167;59.120;37.898;2023-04-03T12:29:28;11.23;;;4.50;;
71696;SDS011;68167;59.120;37.898;2023-04-03T12:38:02;11.20;;;4.77;;
71696;SDS011;68167;59.120;37.898;2023-04-03T12:40:43;7.57;;;4.63;;
71696;SDS011;68167;59.120;37.898;2023-04-03T12:45:51;11.83;;;5.60;;
71696;SDS011;68167;59.120;37.898;2023-04-03T12:48:28;13.77;;;5.40;;
71696;SDS011;68167;59.120;37.898;2023-04-03T12:50:58;13.10;;;5.50;;
71696;SDS011;68167;59.120;37.898;2023-04-03T12:53:26;11.80;;;5.70;;
71696;SDS011;68167;59.120;37.898;2023-04-03T12:58:54;10.17;;;4.87;;
71696;SDS011;68167;59.120;37.898;2023-04-03T13:01:26;9.97;;;4.97;;
71696;SDS011;68167;59.120;37.898;2023-04-03T13:03:56;8.33;;;4.57;;
71696;SDS011;68167;59.120;37.898;2023-04-03T13:06:28;13.57;;;5.30;;
71696;SDS011;68167;59.120;37.898;2023-04-03T13:09:00;8.10;;;4.87;;
71696;SDS011;68167;59.120;37.898;2023-04-03T13:11:30;10.73;;;4.67;;
71696;SDS011;68167;59.120;37.898;2023-04-03T13:14:12;13.07;;;5.80;;
71696;SDS011;68167;59.120;37.898;2023-04-03T13:16:52;12.23;;;4.87;;
71696;SDS011;68167;59.120;37.898;2023-04-03T13:19:27;6.10;;;4.00;;
71696;SDS011;68167;59.120;37.898;2023-04-03T13:21:59;12.50;;;4.63;;
71696;SDS011;68167;59.120;37.898;2023-04-03T13:24:35;10.43;;;5.07;;
71696;SDS011;68167;59.120;37.898;2023-04-03T13:27:03;8.27;;;5.20;;
71696;SDS011;68167;59.120;37.898;2023-04-03T13:29:32;12.53;;;5.93;;
71696;SDS011;68167;59.120;37.898;2023-04-03T13:32:01;10.43;;;5.13;;
71696;SDS011;68167;59.120;37.898;2023-04-03T13:34:35;8.60;;;5.00;;
71696;SDS011;68167;59.120;37.898;2023-04-03T13:37:11;11.00;;;5.27;;
71696;SDS011;68167;59.120;37.898;2023-04-03T13:39:55;9.40;;;5.30;;
71696;SDS011;68167;59.120;37.898;2023-04-03T13:42:31;13.07;;;6.07;;
71696;SDS011;68167;59.120;37.898;2023-04-03T13:45:19;7.73;;;4.03;;
71696;SDS011;68167;59.120;37.898;2023-04-03T13:48:05;8.93;;;5.67;;
71696;SDS011;68167;59.120;37.898;2023-04-03T13:50:48;11.80;;;5.83;;
71696;SDS011;68167;59.120;37.898;2023-04-03T13:53:18;11.33;;;6.30;;
71696;SDS011;68167;59.120;37.898;2023-04-03T13:56:19;10.63;;;6.07;;
71696;SDS011;68167;59.120;37.898;2023-04-03T13:58:58;13.43;;;5.93;;
71696;SDS011;68167;59.120;37.898;2023-04-03T14:01:33;12.27;;;5.73;;
71696;SDS011;68167;59.120;37.898;2023-04-03T14:04:17;13.00;;;5.60;;
71696;SDS011;68167;59.120;37.898;2023-04-03T14:06:55;11.33;;;5.13;;
71696;SDS011;68167;59.120;37.898;2023-04-03T14:09:22;11.10;;;6.03;;
71696;SDS011;68167;59.120;37.898;2023-04-03T14:11:55;9.83;;;4.80;;
71696;SDS011;68167;59.120;37.898;2023-04-03T14:14:27;11.67;;;5.10;;
71696;SDS011;68167;59.120;37.898;2023-04-03T14:16:58;10.20;;;5.57;;
71696;SDS011;68167;59.120;37.898;2023-04-03T14:19:29;10.33;;;4.93;;
71696;SDS011;68167;59.120;37.898;2023-04-03T14:21:58;9.80;;;5.23;;
71696;SDS011;68167;59.120;37.898;2023-04-03T14:24:26;10.53;;;5.60;;
71696;SDS011;68167;59.120;37.898;2023-04-03T14:26:55;10.53;;;5.10;;
71696;SDS011;68167;59.120;37.898;2023-04-03T14:29:23;15.20;;;6.80;;
71696;SDS011;68167;59.120;37.898;2023-04-03T14:31:50;13.03;;;5.50;;
71696;SDS011;68167;59.120;37.898;2023-04-03T14:34:16;12.70;;;5.93;;
71696;SDS011;68167;59.120;37.898;2023-04-03T14:36:43;12.50;;;5.80;;
71696;SDS011;68167;59.120;37.898;2023-04-03T14:39:13;10.60;;;5.40;;
71696;SDS011;68167;59.120;37.898;2023-04-03T14:41:44;10.80;;;5.07;;
71696;SDS011;68167;59.120;37.898;2023-04-03T14:44:11;11.73;;;5.47;;
71696;SDS011;68167;59.120;37.898;2023-04-03T14:46:39;15.00;;;5.57;;
71696;SDS011;68167;59.120;37.898;2023-04-03T14:49:26;21.50;;;6.50;;
71696;SDS011;68167;59.120;37.898;2023-04-03T14:51:55;28.67;;;5.77;;
71696;SDS011;68167;59.120;37.898;2023-04-03T14:54:23;32.47;;;5.80;;
71696;SDS011;68167;59.120;37.898;2023-04-03T14:56:53;21.63;;;6.43;;
71696;SDS011;68167;59.120;37.898;2023-04-03T14:59:21;20.07;;;6.27;;
71696;SDS011;68167;59.120;37.898;2023-04-03T15:01:48;20.10;;;6.07;;
71696;SDS011;68167;59.120;37.898;2023-04-03T15:04:15;21.90;;;6.67;;
71696;SDS011;68167;59.120;37.898;2023-04-03T15:06:44;25.83;;;6.70;;
71696;SDS011;68167;59.120;37.898;2023-04-03T15:09:14;18.43;;;6.57;;
71696;SDS011;68167;59.120;37.898;2023-04-03T15:11:46;34.90;;;7.13;;
71696;SDS011;68167;59.120;37.898;2023-04-03T15:14:14;37.83;;;7.10;;
71696;SDS011;68167;59.120;37.898;2023-04-03T15:16:41;73.37;;;7.73;;
71696;SDS011;68167;59.120;37.898;2023-04-03T15:19:08;18.13;;;6.57;;
71696;SDS011;68167;59.120;37.898;2023-04-03T15:21:40;46.13;;;7.60;;
71696;SDS011;68167;59.120;37.898;2023-04-03T15:24:08;43.13;;;7.80;;
71696;SDS011;68167;59.120;37.898;2023-04-03T15:26:35;27.83;;;7.13;;
71696;SDS011;68167;59.120;37.898;2023-04-03T15:29:03;50.30;;;7.37;;
71696;SDS011;68167;59.120;37.898;2023-04-03T15:31:30;36.90;;;7.67;;
71696;SDS011;68167;59.120;37.898;2023-04-03T15:33:57;39.03;;;8.03;;
71696;SDS011;68167;59.120;37.898;2023-04-03T15:36:23;47.13;;;7.43;;
71696;SDS011;68167;59.120;37.898;2023-04-03T15:38:50;51.37;;;5.77;;
71696;SDS011;68167;59.120;37.898;2023-04-03T15:41:17;67.00;;;6.30;;
71696;SDS011;68167;59.120;37.898;2023-04-03T15:43:44;34.07;;;5.67;;
71696;SDS011;68167;59.120;37.898;2023-04-03T15:46:11;32.83;;;6.93;;
71696;SDS011;68167;59.120;37.898;2023-04-03T15:48:39;45.47;;;6.33;;
71696;SDS011;68167;59.120;37.898;2023-04-03T15:51:05;48.03;;;5.80;;
71696;SDS011;68167;59.120;37.898;2023-04-03T15:53:32;62.47;;;6.87;;
71696;SDS011;68167;59.120;37.898;2023-04-03T15:55:59;65.03;;;6.13;;
71696;SDS011;68167;59.120;37.898;2023-04-03T15:58:48;60.37;;;6.23;;
71696;SDS011;68167;59.120;37.898;2023-04-03T16:01:14;66.30;;;6.63;;
71696;SDS011;68167;59.120;37.898;2023-04-03T16:03:41;54.47;;;6.30;;
71696;SDS011;68167;59.120;37.898;2023-04-03T16:06:12;35.57;;;6.23;;
71696;SDS011;68167;59.120;37.898;2023-04-03T16:08:39;48.67;;;6.37;;
71696;SDS011;68167;59.120;37.898;2023-04-03T16:11:06;54.30;;;6.07;;
71696;SDS011;68167;59.120;37.898;2023-04-03T16:13:32;51.17;;;6.57;;